Time;durP1;ratioP1;P1;durP2;ratioP2;P2;SDS_P1;SDS_P2;PMS_P1;PMS_P2;Temp;Humidity;BMP_temperature;BMP_pressure;BME280_temperature;BME280_humidity;BME280_pressure;Samples;Min_cycle;Max_cycle;Signal;HPM_P1;HPM_P2
2022/03/09 00:01:17;;;;;;;13.85;7.75;;;0.70;43.70;;;;;;5036689;28;20112;-23
2022/03/09 00:03:43;;;;;;;20.35;10.60;;;0.70;43.30;;;;;;5036090;28;20037;-22
2022/03/09 00:06:09;;;;;;;26.05;13.20;;;0.70;43.60;;;;;;5036275;28;20079;-22
2022/03/09 00:08:36;;;;;;;30.90;14.10;;;0.60;44.10;;;;;;5035944;28;20025;-23
2022/03/09 00:11:02;;;;;;;20.35;8.93;;;0.50;43.80;;;;;;5036743;28;20033;-23
2022/03/09 00:13:28;;;;;;;20.83;9.95;;;0.50;43.50;;;;;;5037156;28;20021;-21
2022/03/09 00:15:54;;;;;;;28.13;12.02;;;0.40;44.00;;;;;;5036013;28;20056;-22
2022/03/09 00:18:20;;;;;;;31.90;16.80;;;0.40;46.80;;;;;;5035647;28;20095;-21
2022/03/09 00:20:46;;;;;;;20.70;10.65;;;0.40;45.40;;;;;;5036226;28;20029;-23
2022/03/09 00:23:12;;;;;;;20.42;10.48;;;0.30;45.40;;;;;;5036118;28;20041;-22
2022/03/09 00:25:38;;;;;;;17.50;8.95;;;0.30;44.50;;;;;;5036161;28;20025;-23
2022/03/09 00:28:04;;;;;;;22.42;12.05;;;0.30;44.20;;;;;;5035807;28;20026;-23
2022/03/09 00:30:30;;;;;;;13.63;6.78;;;0.20;44.20;;;;;;5035953;28;20029;-22
2022/03/09 00:32:56;;;;;;;21.17;9.68;;;0.20;44.20;;;;;;5035687;28;20124;-23
2022/03/09 00:35:22;;;;;;;12.18;5.82;;;0.10;44.20;;;;;;5035814;28;20037;-22
2022/03/09 00:37:48;;;;;;;15.43;7.07;;;0.10;44.20;;;;;;5035591;28;20052;-22
2022/03/09 00:40:14;;;;;;;14.30;6.75;;;0.10;44.50;;;;;;5035294;28;20119;-22
2022/03/09 00:42:40;;;;;;;14.43;7.10;;;0.00;45.00;;;;;;5035448;28;20037;-22
2022/03/09 00:45:08;;;;;;;13.18;5.50;;;0.00;44.70;;;;;;5034303;28;20438;-21
2022/03/09 00:47:33;;;;;;;18.42;10.05;;;0.00;44.30;;;;;;5035913;28;20026;-22
2022/03/09 00:49:59;;;;;;;31.98;16.85;;;0.00;44.30;;;;;;5035330;28;20032;-21
2022/03/09 00:52:26;;;;;;;19.02;11.75;;;0.00;45.80;;;;;;5036069;28;20068;-21
2022/03/09 00:54:52;;;;;;;12.98;6.22;;;0.00;45.50;;;;;;5035330;28;20517;-22
2022/03/09 00:57:18;;;;;;;14.82;6.75;;;0.00;44.80;;;;;;5035583;28;20192;-21
2022/03/09 00:59:44;;;;;;;19.05;9.05;;;0.00;44.60;;;;;;5035488;28;20025;-23
2022/03/09 01:02:09;;;;;;;16.02;7.50;;;-0.10;44.70;;;;;;5035317;28;20029;-22
2022/03/09 01:04:35;;;;;;;26.27;11.63;;;-0.10;44.70;;;;;;5034774;28;20041;-21
2022/03/09 01:07:03;;;;;;;21.05;11.10;;;-0.10;44.90;;;;;;5035086;28;20076;-22
2022/03/09 01:09:29;;;;;;;39.25;19.85;;;-0.20;44.90;;;;;;5033811;28;20112;-23
2022/03/09 01:11:57;;;;;;;25.50;11.68;;;-0.20;46.40;;;;;;5035340;28;20029;-23
2022/03/09 01:14:24;;;;;;;14.82;6.68;;;-0.30;45.50;;;;;;5035249;28;20029;-23
2022/03/09 01:16:50;;;;;;;13.55;6.43;;;-0.30;45.90;;;;;;5035235;28;20034;-22
2022/03/09 01:19:16;;;;;;;27.67;12.38;;;-0.30;45.50;;;;;;5034584;28;20049;-21
2022/03/09 01:21:42;;;;;;;13.82;6.80;;;-0.30;46.40;;;;;;5034795;28;20034;-20
2022/03/09 01:24:08;;;;;;;18.88;8.50;;;-0.40;45.60;;;;;;5034978;28;20091;-22
2022/03/09 01:26:35;;;;;;;29.92;16.67;;;-0.40;46.30;;;;;;5034589;28;20109;-22
2022/03/09 01:29:01;;;;;;;34.65;17.23;;;-0.40;47.50;;;;;;5034804;28;20489;-22
2022/03/09 01:31:27;;;;;;;13.60;7.53;;;-0.50;48.70;;;;;;5034929;28;20032;-20
2022/03/09 01:33:53;;;;;;;26.10;12.98;;;-0.50;47.00;;;;;;5034689;28;20028;-21
2022/03/09 01:36:19;;;;;;;26.02;12.88;;;-0.50;46.60;;;;;;5034620;28;20017;-22
2022/03/09 01:38:45;;;;;;;15.07;7.88;;;-0.50;48.30;;;;;;5034511;28;20477;-22
2022/03/09 01:41:11;;;;;;;20.17;9.77;;;-0.50;47.60;;;;;;5034424;28;20509;-20
2022/03/09 01:43:41;;;;;;;20.17;10.43;;;-0.60;47.60;;;;;;5034294;28;20389;-21
2022/03/09 01:46:07;;;;;;;13.52;6.43;;;-0.60;47.80;;;;;;5033525;28;20049;-22
2022/03/09 01:48:33;;;;;;;13.20;6.28;;;-0.60;47.00;;;;;;5034101;28;20029;-21
2022/03/09 01:50:59;;;;;;;16.25;8.18;;;-0.60;46.40;;;;;;5034272;28;20084;-21
2022/03/09 01:53:26;;;;;;;17.52;8.57;;;-0.60;46.20;;;;;;5034532;28;20034;-22
2022/03/09 01:55:52;;;;;;;25.35;13.90;;;-0.60;46.00;;;;;;5034402;28;20030;-21
2022/03/09 01:58:18;;;;;;;33.03;16.52;;;-0.70;48.10;;;;;;5033910;28;20083;-21
2022/03/09 02:00:44;;;;;;;14.93;8.00;;;-0.70;47.90;;;;;;5034681;28;20033;-22
2022/03/09 02:03:10;;;;;;;17.52;7.60;;;-0.70;48.30;;;;;;5033946;28;20025;-21
2022/03/09 02:05:36;;;;;;;22.00;10.85;;;-0.80;48.30;;;;;;5034253;28;20112;-21
2022/03/09 02:10:49;;;;;;;16.38;8.38;;;-0.80;47.60;;;;;;5034604;28;20428;-21
2022/03/09 02:13:15;;;;;;;31.00;15.95;;;-0.80;47.10;;;;;;5034077;28;20398;-20
2022/03/09 02:15:44;;;;;;;45.67;21.92;;;-0.80;48.30;;;;;;5032970;28;20032;-20
2022/03/09 02:18:10;;;;;;;20.65;10.10;;;-0.90;48.40;;;;;;5033631;28;20049;-21
2022/03/09 02:20:42;;;;;;;35.50;17.73;;;-0.90;48.80;;;;;;5034080;28;20112;-20
2022/03/09 02:23:08;;;;;;;24.10;12.80;;;-0.90;48.70;;;;;;5033625;28;20037;-21
2022/03/09 02:25:34;;;;;;;21.55;12.85;;;-0.90;48.70;;;;;;5033595;28;20079;-20
2022/03/09 02:28:01;;;;;;;13.85;6.53;;;-0.90;48.20;;;;;;5034461;28;20077;-21
2022/03/09 02:30:27;;;;;;;32.60;18.45;;;-0.90;47.90;;;;;;5033330;28;20040;-21
2022/03/09 02:32:53;;;;;;;14.13;7.03;;;-0.90;48.40;;;;;;5033527;28;20543;-21
2022/03/09 02:35:20;;;;;;;52.88;27.52;;;-0.90;48.10;;;;;;5033411;28;20018;-21
2022/03/09 02:37:47;;;;;;;18.65;9.70;;;-1.00;48.40;;;;;;5033769;28;20079;-21
2022/03/09 02:40:15;;;;;;;25.98;13.15;;;-1.00;48.60;;;;;;5031948;28;20025;-21
2022/03/09 02:42:41;;;;;;;20.10;9.88;;;-1.00;49.80;;;;;;5033687;28;20071;-21
2022/03/09 02:45:07;;;;;;;18.55;9.82;;;-1.00;48.70;;;;;;5033235;28;20043;-20
2022/03/09 02:47:34;;;;;;;26.20;12.38;;;-1.10;48.10;;;;;;5033265;28;20032;-19
2022/03/09 02:50:01;;;;;;;16.35;7.18;;;-1.10;48.40;;;;;;5033138;28;20021;-20
2022/03/09 02:52:26;;;;;;;14.57;6.93;;;-1.10;48.30;;;;;;5033018;28;20493;-20
2022/03/09 02:54:52;;;;;;;27.15;14.43;;;-1.10;48.40;;;;;;5031949;28;20025;-20
2022/03/09 02:57:18;;;;;;;13.93;7.13;;;-1.20;49.30;;;;;;5031831;28;20128;-19
2022/03/09 02:59:44;;;;;;;10.57;5.60;;;-1.20;48.30;;;;;;5031897;28;20060;-21
2022/03/09 03:02:10;;;;;;;20.05;9.88;;;-1.20;48.00;;;;;;5033278;28;20576;-21
2022/03/09 03:04:36;;;;;;;13.82;6.28;;;-1.20;50.20;;;;;;5033074;28;20504;-20
2022/03/09 03:07:02;;;;;;;42.13;21.15;;;-1.30;48.40;;;;;;5033028;28;20037;-20
2022/03/09 03:09:28;;;;;;;23.80;11.68;;;-1.30;49.00;;;;;;5033527;28;20102;-19
2022/03/09 03:11:54;;;;;;;17.70;8.98;;;-1.30;51.40;;;;;;5033182;28;20533;-21
2022/03/09 03:14:20;;;;;;;14.57;7.72;;;-1.40;50.50;;;;;;5031623;28;20036;-20
2022/03/09 03:16:46;;;;;;;20.58;10.90;;;-1.30;49.40;;;;;;5033503;28;20059;-21
2022/03/09 03:19:12;;;;;;;14.10;7.07;;;-1.40;50.10;;;;;;5032568;28;20402;-21
2022/03/09 03:21:38;;;;;;;26.73;12.32;;;-1.40;49.30;;;;;;5032954;28;20037;-21
2022/03/09 03:24:05;;;;;;;19.77;8.15;;;-1.40;48.90;;;;;;5033175;28;20029;-21
2022/03/09 03:26:31;;;;;;;11.93;6.32;;;-1.40;49.00;;;;;;5032999;28;20025;-20
2022/03/09 03:28:58;;;;;;;18.90;10.02;;;-1.40;48.60;;;;;;5033492;28;20022;-19
2022/03/09 03:31:25;;;;;;;12.48;6.38;;;-1.50;49.00;;;;;;5033567;28;20076;-21
2022/03/09 03:33:51;;;;;;;13.10;5.63;;;-1.50;49.30;;;;;;5031551;28;20432;-21
2022/03/09 03:36:17;;;;;;;11.23;5.80;;;-1.50;48.90;;;;;;5032911;28;20514;-20
2022/03/09 03:38:43;;;;;;;27.05;12.65;;;-1.50;48.70;;;;;;5033066;28;20038;-21
2022/03/09 03:41:10;;;;;;;19.73;10.02;;;-1.50;48.40;;;;;;5032759;28;20025;-20
2022/03/09 03:43:35;;;;;;;22.02;11.27;;;-1.60;48.40;;;;;;5033493;28;20116;-20
2022/03/09 03:46:02;;;;;;;22.92;11.32;;;-1.60;48.70;;;;;;5032731;28;20116;-20
2022/03/09 03:48:28;;;;;;;26.42;11.65;;;-1.60;48.80;;;;;;5032741;28;20071;-21
2022/03/09 03:50:54;;;;;;;21.35;11.07;;;-1.60;49.00;;;;;;5032670;28;20029;-21
2022/03/09 03:53:20;;;;;;;18.55;8.93;;;-1.60;48.70;;;;;;5032742;28;20018;-19
2022/03/09 03:55:46;;;;;;;14.27;7.07;;;-1.60;49.20;;;;;;5031430;28;20057;-20
2022/03/09 03:58:12;;;;;;;11.40;5.13;;;-1.70;48.80;;;;;;5033327;28;20033;-20
2022/03/09 04:00:38;;;;;;;25.05;12.25;;;-1.70;48.50;;;;;;5033185;28;20112;-21
2022/03/09 04:03:05;;;;;;;17.85;9.60;;;-1.70;48.80;;;;;;5033081;28;20104;-20
2022/03/09 04:05:30;;;;;;;16.65;9.15;;;-1.70;48.90;;;;;;5032851;28;20489;-21
2022/03/09 04:07:57;;;;;;;47.78;22.77;;;-1.70;49.40;;;;;;5032813;28;20044;-19
2022/03/09 04:10:23;;;;;;;21.83;11.13;;;-1.70;50.10;;;;;;5034793;28;20026;-20
2022/03/09 04:12:49;;;;;;;13.52;6.57;;;-1.80;49.70;;;;;;5036040;28;20112;-19
2022/03/09 04:15:15;;;;;;;19.85;10.38;;;-1.70;49.10;;;;;;5036174;28;20106;-20
2022/03/09 04:17:46;;;;;;;14.02;7.25;;;-1.80;49.40;;;;;;5035790;28;20053;-22
2022/03/09 04:20:15;;;;;;;23.95;11.68;;;-1.80;49.00;;;;;;5035919;28;20022;-21
2022/03/09 04:22:42;;;;;;;32.38;15.77;;;-1.80;52.80;;;;;;5035867;28;20025;-21
2022/03/09 04:25:09;;;;;;;16.90;9.15;;;-1.80;51.60;;;;;;5036096;28;20037;-19
2022/03/09 04:27:36;;;;;;;29.77;15.10;;;-1.80;50.70;;;;;;5035949;28;20025;-20
2022/03/09 04:30:04;;;;;;;24.27;11.80;;;-1.80;50.60;;;;;;5036091;28;20029;-21
2022/03/09 04:32:31;;;;;;;22.83;11.50;;;-1.80;50.10;;;;;;5035557;28;20036;-20
2022/03/09 04:34:57;;;;;;;15.18;6.85;;;-1.80;51.10;;;;;;5035615;28;20025;-19
2022/03/09 04:37:23;;;;;;;16.90;8.00;;;-1.80;50.10;;;;;;5036025;28;20047;-19
2022/03/09 04:39:49;;;;;;;43.63;24.27;;;-1.80;50.50;;;;;;5035607;28;20552;-20
2022/03/09 04:42:16;;;;;;;15.07;6.20;;;-1.90;50.20;;;;;;5035413;28;20029;-20
2022/03/09 04:44:41;;;;;;;15.93;7.72;;;-1.90;49.70;;;;;;5035772;28;20033;-19
2022/03/09 04:47:07;;;;;;;13.48;6.80;;;-1.90;50.00;;;;;;5035420;28;20128;-21
2022/03/09 04:49:33;;;;;;;22.08;11.40;;;-1.90;50.00;;;;;;5035358;28;20025;-21
2022/03/09 04:51:59;;;;;;;12.13;5.55;;;-1.90;50.10;;;;;;5035278;28;20079;-21
2022/03/09 04:54:25;;;;;;;19.35;11.48;;;-1.90;50.10;;;;;;5035188;28;20026;-21
2022/03/09 04:56:51;;;;;;;12.30;5.78;;;-2.00;49.80;;;;;;5035671;28;20114;-20
2022/03/09 04:59:17;;;;;;;12.32;5.70;;;-2.00;49.80;;;;;;5035925;28;20032;-20
2022/03/09 05:01:43;;;;;;;19.13;9.38;;;-2.00;49.60;;;;;;5035323;28;20030;-20
2022/03/09 05:04:09;;;;;;;18.23;8.93;;;-2.00;49.60;;;;;;5035027;28;20034;-20
2022/03/09 05:06:35;;;;;;;16.75;7.90;;;-2.00;49.50;;;;;;5035567;28;20032;-21
2022/03/09 05:09:01;;;;;;;23.45;10.60;;;-2.10;49.80;;;;;;5035414;28;20029;-19
2022/03/09 05:11:27;;;;;;;11.68;5.78;;;-2.10;49.90;;;;;;5035015;28;20564;-20
2022/03/09 05:13:53;;;;;;;13.93;6.50;;;-2.10;49.60;;;;;;5035352;28;20018;-21
2022/03/09 05:16:19;;;;;;;12.18;5.30;;;-2.10;49.70;;;;;;5035388;28;20469;-19
2022/03/09 05:18:45;;;;;;;18.23;8.27;;;-2.10;49.40;;;;;;5034955;28;20107;-20
2022/03/09 05:21:11;;;;;;;30.30;16.05;;;-2.20;50.10;;;;;;5033968;28;20021;-21
2022/03/09 05:23:37;;;;;;;30.35;13.93;;;-2.20;51.20;;;;;;5035381;28;20037;-21
2022/03/09 05:26:03;;;;;;;23.23;12.50;;;-2.20;51.30;;;;;;5034779;28;20041;-19
2022/03/09 05:28:29;;;;;;;19.73;11.30;;;-2.20;52.20;;;;;;5034497;28;20025;-20
2022/03/09 05:30:56;;;;;;;28.20;14.90;;;-2.30;51.40;;;;;;5034689;28;20030;-21
2022/03/09 05:33:22;;;;;;;12.25;6.07;;;-2.20;51.70;;;;;;5034535;28;20026;-19
2022/03/09 05:35:47;;;;;;;10.95;6.10;;;-2.30;51.40;;;;;;5034591;28;20037;-19
2022/03/09 05:38:15;;;;;;;17.92;9.05;;;-2.30;51.20;;;;;;5034543;28;20056;-20
2022/03/09 05:40:41;;;;;;;31.33;16.48;;;-2.30;50.70;;;;;;5034751;28;20029;-20
2022/03/09 05:43:07;;;;;;;13.93;6.25;;;-2.20;51.20;;;;;;5033125;28;20367;-19
2022/03/09 05:45:33;;;;;;;13.15;6.20;;;-2.20;51.30;;;;;;5034676;28;20502;-20
2022/03/09 05:48:00;;;;;;;13.93;6.85;;;-2.30;51.30;;;;;;5033025;28;20033;-21
2022/03/09 05:50:26;;;;;;;19.48;9.55;;;-2.30;51.00;;;;;;5032790;28;20501;-21
2022/03/09 05:52:52;;;;;;;9.73;4.90;;;-2.20;52.60;;;;;;5034238;28;20086;-19
2022/03/09 05:55:18;;;;;;;12.75;5.80;;;-2.20;51.10;;;;;;5033016;28;20029;-20
2022/03/09 05:57:44;;;;;;;11.65;5.28;;;-2.20;51.20;;;;;;5034389;28;20029;-21
2022/03/09 06:00:11;;;;;;;22.70;11.65;;;-2.20;50.70;;;;;;5034277;28;20032;-19
2022/03/09 06:02:37;;;;;;;8.30;4.05;;;-2.20;51.10;;;;;;5034373;28;20029;-19
2022/03/09 06:05:04;;;;;;;11.75;5.28;;;-2.10;51.00;;;;;;5034098;28;20044;-21
2022/03/09 06:07:31;;;;;;;19.30;9.18;;;-2.10;50.30;;;;;;5033992;28;20036;-19
2022/03/09 06:09:58;;;;;;;24.48;11.60;;;-2.10;50.50;;;;;;5034237;28;20031;-21
2022/03/09 06:12:24;;;;;;;21.67;11.18;;;-2.00;50.50;;;;;;5033954;28;20025;-20
2022/03/09 06:14:50;;;;;;;17.70;8.38;;;-1.90;51.10;;;;;;5034460;28;20025;-19
2022/03/09 06:17:16;;;;;;;12.77;6.40;;;-1.90;51.70;;;;;;5033795;28;20117;-21
2022/03/09 06:19:42;;;;;;;19.88;9.38;;;-1.80;51.20;;;;;;5033469;28;20095;-19
2022/03/09 06:22:10;;;;;;;13.73;6.90;;;-1.70;51.40;;;;;;5033645;28;20045;-20
2022/03/09 06:24:36;;;;;;;12.10;6.80;;;-1.60;51.10;;;;;;5032204;28;20064;-20
2022/03/09 06:27:02;;;;;;;27.23;12.63;;;-1.50;50.40;;;;;;5034027;28;20061;-19
2022/03/09 06:29:28;;;;;;;24.08;11.95;;;-1.40;50.20;;;;;;5033910;28;20112;-19
2022/03/09 06:31:54;;;;;;;47.42;21.65;;;-1.40;50.90;;;;;;5033557;28;20108;-20
2022/03/09 06:34:19;;;;;;;35.10;15.63;;;-1.20;50.70;;;;;;5033478;28;20029;-20
2022/03/09 06:36:45;;;;;;;33.30;16.25;;;-1.20;51.00;;;;;;5033713;28;20083;-19
2022/03/09 06:39:13;;;;;;;21.33;10.40;;;-1.00;51.40;;;;;;5032243;28;20030;-19
2022/03/09 06:41:41;;;;;;;21.90;10.80;;;-0.90;51.20;;;;;;5033643;28;20029;-20
2022/03/09 06:44:07;;;;;;;35.05;17.20;;;-0.80;51.40;;;;;;5031973;28;20029;-21
2022/03/09 06:46:33;;;;;;;37.55;19.33;;;-0.70;51.60;;;;;;5033415;28;20370;-19
2022/03/09 06:48:59;;;;;;;57.40;28.08;;;-0.50;50.50;;;;;;5033241;28;20495;-19
2022/03/09 06:51:25;;;;;;;62.15;28.92;;;-0.30;53.90;;;;;;5033463;28;20025;-19
2022/03/09 06:53:50;;;;;;;61.33;28.90;;;-0.10;54.60;;;;;;5033545;28;20083;-19
2022/03/09 06:56:18;;;;;;;63.97;29.67;;;0.00;54.70;;;;;;5033182;28;20366;-21
2022/03/09 06:58:45;;;;;;;38.15;18.58;;;0.20;55.30;;;;;;5033672;28;20022;-20
2022/03/09 07:01:12;;;;;;;45.67;23.95;;;0.50;54.00;;;;;;5033143;28;20067;-21
2022/03/09 07:03:38;;;;;;;59.90;28.70;;;0.70;53.20;;;;;;5033116;28;20028;-20
2022/03/09 07:06:04;;;;;;;54.45;26.73;;;0.90;55.50;;;;;;5032050;28;20073;-21
2022/03/09 07:08:31;;;;;;;64.85;30.52;;;1.10;53.40;;;;;;5033182;28;20060;-20
2022/03/09 07:10:58;;;;;;;59.25;27.88;;;1.30;52.50;;;;;;5033372;28;20029;-21
2022/03/09 07:13:25;;;;;;;57.92;28.55;;;1.50;52.40;;;;;;5033475;28;20115;-21
2022/03/09 07:15:52;;;;;;;60.08;28.05;;;1.60;54.80;;;;;;5033033;28;20029;-22
2022/03/09 07:18:18;;;;;;;55.47;27.45;;;1.80;52.90;;;;;;5032680;28;20057;-20
2022/03/09 07:20:44;;;;;;;76.18;37.58;;;1.90;52.00;;;;;;5032873;28;20385;-22
2022/03/09 07:23:10;;;;;;;53.22;26.75;;;2.00;55.90;;;;;;5033018;28;20025;-20
2022/03/09 07:25:36;;;;;;;44.95;22.35;;;2.10;51.50;;;;;;5032878;28;20486;-20
2022/03/09 07:28:02;;;;;;;48.10;23.48;;;2.30;52.80;;;;;;5033091;28;20028;-22
2022/03/09 07:30:28;;;;;;;54.35;25.33;;;2.40;52.00;;;;;;5032896;28;20417;-21
2022/03/09 07:32:55;;;;;;;53.45;27.23;;;2.50;51.00;;;;;;5033081;28;20051;-20
2022/03/09 07:35:22;;;;;;;50.45;23.48;;;2.60;52.90;;;;;;5032943;28;20036;-20
2022/03/09 07:37:51;;;;;;;33.88;17.52;;;2.80;54.20;;;;;;5032799;28;20035;-20
2022/03/09 07:40:17;;;;;;;56.28;27.25;;;2.90;53.00;;;;;;5033295;28;20362;-21
2022/03/09 07:42:43;;;;;;;46.50;23.05;;;3.00;54.90;;;;;;5033029;28;20540;-21
2022/03/09 07:45:10;;;;;;;61.05;28.40;;;3.20;54.70;;;;;;5034898;28;20029;-21
2022/03/09 07:47:36;;;;;;;67.35;32.65;;;3.20;54.70;;;;;;5036917;28;20032;-21
2022/03/09 07:50:04;;;;;;;53.83;27.30;;;3.40;55.10;;;;;;5036445;28;20421;-22
2022/03/09 07:52:30;;;;;;;58.92;29.88;;;3.50;54.50;;;;;;5036596;28;20036;-22
2022/03/09 07:54:56;;;;;;;45.28;22.20;;;3.70;54.70;;;;;;5037105;28;20377;-23
2022/03/09 07:57:22;;;;;;;45.30;24.98;;;3.80;53.10;;;;;;5036487;28;20025;-23
2022/03/09 07:59:48;;;;;;;50.60;26.27;;;3.90;53.10;;;;;;5036619;28;20033;-22
2022/03/09 08:02:14;;;;;;;38.65;19.73;;;4.10;52.40;;;;;;5034887;28;20040;-21
2022/03/09 08:04:40;;;;;;;36.05;17.95;;;4.20;51.90;;;;;;5036424;28;20100;-21
2022/03/09 08:07:06;;;;;;;56.58;27.77;;;4.40;52.00;;;;;;5036571;28;20059;-21
2022/03/09 08:09:32;;;;;;;45.72;24.52;;;4.60;51.80;;;;;;5036537;28;20499;-22
2022/03/09 08:11:57;;;;;;;39.50;18.30;;;4.80;51.60;;;;;;5036220;28;20071;-21
2022/03/09 08:14:23;;;;;;;38.00;20.55;;;4.90;50.10;;;;;;5035936;28;20028;-21
2022/03/09 08:16:50;;;;;;;38.05;19.30;;;5.10;50.70;;;;;;5036387;28;20022;-21
2022/03/09 08:19:16;;;;;;;42.78;19.90;;;5.30;49.80;;;;;;5035852;28;20111;-21
2022/03/09 08:21:42;;;;;;;31.35;16.38;;;5.60;49.20;;;;;;5036005;28;20041;-22
2022/03/09 08:24:08;;;;;;;33.03;16.23;;;5.80;48.70;;;;;;5036191;28;20084;-21
2022/03/09 08:26:34;;;;;;;36.00;17.08;;;6.00;48.20;;;;;;5035679;28;20037;-22
2022/03/09 08:29:00;;;;;;;24.65;12.75;;;6.20;47.80;;;;;;5035897;28;20033;-22
2022/03/09 08:31:27;;;;;;;57.92;27.98;;;6.50;47.40;;;;;;5036260;28;20037;-21
2022/03/09 08:33:55;;;;;;;32.05;16.10;;;6.80;47.90;;;;;;5035918;28;20056;-21
2022/03/09 08:36:22;;;;;;;33.53;17.20;;;7.00;47.00;;;;;;5036294;28;20030;-21
2022/03/09 08:38:49;;;;;;;51.08;25.55;;;7.30;46.30;;;;;;5035700;28;20389;-20
2022/03/09 08:41:14;;;;;;;42.97;22.92;;;7.50;46.20;;;;;;5036050;28;20071;-22
2022/03/09 08:43:41;;;;;;;46.75;24.52;;;7.80;45.90;;;;;;5035659;28;20093;-22
2022/03/09 08:46:07;;;;;;;38.33;20.52;;;8.00;45.60;;;;;;5035574;28;20426;-21
2022/03/09 08:48:32;;;;;;;34.28;17.48;;;8.30;45.20;;;;;;5035693;28;20053;-21
2022/03/09 08:50:58;;;;;;;39.03;19.00;;;8.50;44.70;;;;;;5035351;28;20022;-21
2022/03/09 08:53:27;;;;;;;36.70;19.20;;;8.80;44.40;;;;;;5035729;28;20032;-22
2022/03/09 08:55:53;;;;;;;39.40;21.25;;;9.10;43.90;;;;;;5033830;28;20366;-21
2022/03/09 08:58:19;;;;;;;43.72;22.02;;;9.40;43.60;;;;;;5035149;28;20505;-23
2022/03/09 09:00:45;;;;;;;32.58;17.23;;;9.70;43.20;;;;;;5035321;28;20528;-21
2022/03/09 09:03:11;;;;;;;38.78;21.05;;;9.90;42.80;;;;;;5035489;28;20057;-22
2022/03/09 09:05:37;;;;;;;26.27;14.27;;;10.20;42.30;;;;;;5035119;28;20026;-21
2022/03/09 09:08:04;;;;;;;24.45;13.52;;;10.50;42.10;;;;;;5035462;28;20033;-22
2022/03/09 09:10:31;;;;;;;38.55;20.77;;;10.80;41.70;;;;;;5034904;28;20014;-22
2022/03/09 09:12:59;;;;;;;42.45;22.98;;;11.10;41.60;;;;;;5035053;28;20449;-20
2022/03/09 09:15:26;;;;;;;40.97;22.23;;;11.40;41.00;;;;;;5034988;28;20108;-23
2022/03/09 09:18:00;;;;;;;35.67;19.33;;;11.60;40.60;;;;;;5035010;28;20056;-22
2022/03/09 09:20:26;;;;;;;36.92;20.23;;;11.90;40.40;;;;;;5034684;28;20021;-23
2022/03/09 09:22:54;;;;;;;21.90;11.90;;;12.00;39.90;;;;;;5035098;28;20057;-23
2022/03/09 09:25:21;;;;;;;27.55;14.40;;;12.30;39.90;;;;;;5035315;28;20029;-20
2022/03/09 09:27:47;;;;;;;29.73;16.95;;;12.50;39.80;;;;;;5034781;28;20514;-20
2022/03/09 09:30:13;;;;;;;25.88;14.98;;;12.80;38.90;;;;;;5035009;28;20044;-22
2022/03/09 09:32:39;;;;;;;25.77;14.98;;;13.00;38.90;;;;;;5034964;28;20026;-21
2022/03/09 09:35:06;;;;;;;23.13;13.82;;;13.30;38.80;;;;;;5034555;28;20022;-20
2022/03/09 09:37:32;;;;;;;31.40;18.20;;;13.50;38.40;;;;;;5035210;28;20056;-21
2022/03/09 09:39:58;;;;;;;31.17;18.20;;;13.80;37.80;;;;;;5034838;28;20052;-22
2022/03/09 09:42:31;;;;;;;28.55;17.50;;;14.00;37.20;;;;;;5034417;28;20030;-21
2022/03/09 09:45:00;;;;;;;28.27;16.42;;;14.20;37.20;;;;;;5034416;28;20071;-21
2022/03/09 09:47:30;;;;;;;32.45;18.83;;;14.50;36.80;;;;;;5034375;28;20063;-20
2022/03/09 09:49:56;;;;;;;29.83;17.40;;;14.80;36.60;;;;;;5034559;28;20026;-20
2022/03/09 09:52:29;;;;;;;27.92;14.27;;;15.00;36.30;;;;;;5034468;28;20021;-21
2022/03/09 09:54:59;;;;;;;29.27;17.58;;;15.20;35.70;;;;;;5034322;28;20118;-20
2022/03/09 09:57:29;;;;;;;28.42;17.83;;;15.40;35.80;;;;;;5034273;28;20021;-20
2022/03/09 09:59:55;;;;;;;20.98;12.45;;;15.70;35.30;;;;;;5034152;28;20116;-20
2022/03/09 10:02:21;;;;;;;31.05;16.98;;;15.90;35.40;;;;;;5033875;28;20030;-23
2022/03/09 10:04:50;;;;;;;29.05;17.27;;;16.10;35.20;;;;;;5033860;28;20025;-23
2022/03/09 10:07:16;;;;;;;28.33;17.33;;;16.30;34.80;;;;;;5033505;28;20069;-20
2022/03/09 10:09:43;;;;;;;32.00;19.63;;;16.40;34.70;;;;;;5032730;28;20022;-20
2022/03/09 10:12:13;;;;;;;27.35;16.17;;;16.70;34.40;;;;;;5033869;28;20112;-20
2022/03/09 10:14:50;;;;;;;30.67;18.35;;;16.90;34.30;;;;;;5033871;28;20025;-20
2022/03/09 10:17:25;;;;;;;25.75;16.08;;;17.00;32.50;;;;;;5033813;28;20095;-20
2022/03/09 10:19:54;;;;;;;25.30;15.45;;;17.20;33.70;;;;;;5033637;28;20041;-21
2022/03/09 10:22:35;;;;;;;26.50;16.35;;;17.40;33.80;;;;;;5033635;28;20061;-22
2022/03/09 10:25:18;;;;;;;28.13;16.73;;;17.60;33.30;;;;;;5033724;28;20040;-22
2022/03/09 10:27:44;;;;;;;28.33;17.23;;;17.80;33.10;;;;;;5033961;28;20026;-21
2022/03/09 10:30:13;;;;;;;26.05;16.10;;;18.00;32.90;;;;;;5033927;28;20029;-20
2022/03/09 10:32:52;;;;;;;31.58;20.40;;;18.30;33.10;;;;;;5034565;28;20025;-20
2022/03/09 10:35:30;;;;;;;25.90;16.73;;;18.40;32.50;;;;;;5033798;28;20075;-21
2022/03/09 10:38:02;;;;;;;29.27;18.10;;;18.60;32.40;;;;;;5033839;28;20053;-21
2022/03/09 10:40:31;;;;;;;24.35;16.23;;;18.80;32.70;;;;;;5033421;28;20025;-20
2022/03/09 10:43:16;;;;;;;28.90;18.00;;;19.00;32.30;;;;;;5033411;28;20021;-21
2022/03/09 10:46:12;;;;;;;26.73;16.13;;;19.20;31.10;;;;;;5033473;28;20080;-20
2022/03/09 10:48:55;;;;;;;29.25;18.08;;;19.40;30.10;;;;;;5033734;28;20049;-21
2022/03/09 10:51:32;;;;;;;28.25;16.55;;;19.60;30.80;;;;;;5033670;28;20104;-21
2022/03/09 10:54:01;;;;;;;36.00;21.52;;;19.90;31.20;;;;;;5033539;28;20512;-21
2022/03/09 10:56:27;;;;;;;25.00;15.15;;;19.90;30.40;;;;;;5033401;28;20124;-21
2022/03/09 10:58:53;;;;;;;27.63;18.15;;;20.10;31.20;;;;;;5033174;28;20037;-21
2022/03/09 11:01:23;;;;;;;17.58;11.35;;;20.30;30.50;;;;;;5033774;28;20022;-21
2022/03/09 11:03:50;;;;;;;31.17;20.02;;;20.50;31.10;;;;;;5033049;28;20397;-21
2022/03/09 11:06:17;;;;;;;30.08;18.52;;;20.70;30.90;;;;;;5033496;28;20108;-21
2022/03/09 11:08:43;;;;;;;30.45;20.23;;;20.90;30.40;;;;;;5033111;28;20068;-21
2022/03/09 11:11:10;;;;;;;29.55;18.88;;;21.00;30.00;;;;;;5033277;28;20057;-22
2022/03/09 11:13:38;;;;;;;23.73;15.77;;;21.10;29.70;;;;;;5033031;28;20493;-21
2022/03/09 11:16:07;;;;;;;28.10;19.48;;;21.30;30.20;;;;;;5033223;28;20078;-21
2022/03/09 11:18:34;;;;;;;26.83;17.30;;;21.50;30.00;;;;;;5033671;28;20089;-21
2022/03/09 11:21:10;;;;;;;26.95;19.10;;;21.60;30.00;;;;;;5037158;28;20033;-21
2022/03/09 11:23:39;;;;;;;28.55;19.80;;;21.90;29.40;;;;;;5037382;28;20052;-21
2022/03/09 11:26:16;;;;;;;30.63;20.15;;;22.00;29.30;;;;;;5037330;28;20079;-21
2022/03/09 11:28:43;;;;;;;28.35;19.73;;;22.10;28.40;;;;;;5037877;28;20030;-21
2022/03/09 11:31:17;;;;;;;28.95;20.02;;;22.20;28.30;;;;;;5037482;28;20044;-21
2022/03/09 11:33:48;;;;;;;30.60;20.83;;;22.30;27.70;;;;;;5036930;28;20044;-21
2022/03/09 11:36:29;;;;;;;30.65;20.58;;;22.40;27.90;;;;;;5036710;28;20100;-21
2022/03/09 11:39:17;;;;;;;29.75;18.52;;;22.50;26.30;;;;;;5036829;28;20432;-21
2022/03/09 11:41:44;;;;;;;21.27;14.45;;;22.50;27.60;;;;;;5036853;28;20043;-22
2022/03/09 11:44:19;;;;;;;26.42;17.50;;;22.60;27.70;;;;;;5036853;28;20017;-21
2022/03/09 11:47:00;;;;;;;26.75;17.95;;;22.70;26.50;;;;;;5036548;28;20040;-21
2022/03/09 11:49:50;;;;;;;25.67;17.10;;;22.90;26.50;;;;;;5036536;28;20486;-21
2022/03/09 11:52:19;;;;;;;32.17;21.02;;;23.00;27.40;;;;;;5036431;28;20026;-21
2022/03/09 11:54:56;;;;;;;31.40;21.65;;;23.10;26.60;;;;;;5037150;28;20029;-21
2022/03/09 11:57:24;;;;;;;31.20;21.23;;;23.20;26.90;;;;;;5036860;28;20029;-21
2022/03/09 12:00:10;;;;;;;27.27;18.33;;;23.20;26.10;;;;;;5036769;28;20030;-21
2022/03/09 12:02:44;;;;;;;32.13;21.20;;;23.20;25.60;;;;;;5036530;28;20028;-21
2022/03/09 12:05:25;;;;;;;24.33;16.45;;;23.30;26.40;;;;;;5036496;28;20021;-21
2022/03/09 12:07:58;;;;;;;30.40;20.67;;;23.40;26.40;;;;;;5036335;28;20025;-21
2022/03/09 12:10:39;;;;;;;;;;;23.40;25.30;;;;;;5036484;28;20029;-20
2022/03/09 12:13:21;;;;;;;29.05;19.10;;;23.30;22.00;;;;;;5036181;28;19911;-20
2022/03/09 12:16:08;;;;;;;24.02;16.38;;;23.40;25.00;;;;;;5036563;28;20104;-20
2022/03/09 12:18:41;;;;;;;27.38;17.83;;;23.40;23.90;;;;;;5035639;28;20536;-20
2022/03/09 12:21:09;;;;;;;29.00;19.70;;;23.50;25.90;;;;;;5036267;28;20040;-20
2022/03/09 12:23:56;;;;;;;25.90;18.27;;;23.60;26.30;;;;;;5036531;28;20033;-20
2022/03/09 12:26:51;;;;;;;31.42;21.50;;;23.80;25.90;;;;;;5035644;28;20076;-21
2022/03/09 12:29:25;;;;;;;33.45;22.30;;;23.80;23.50;;;;;;5035939;28;20504;-21
2022/03/09 12:32:00;;;;;;;27.02;19.30;;;23.90;25.40;;;;;;5035479;28;20037;-21
2022/03/09 12:34:28;;;;;;;33.00;21.73;;;23.70;24.50;;;;;;5035822;28;20029;-20
2022/03/09 12:36:54;;;;;;;29.13;19.33;;;23.60;25.30;;;;;;5036099;28;20033;-20
2022/03/09 12:39:21;;;;;;;33.47;23.30;;;23.70;25.40;;;;;;5036307;28;20029;-21